Time;durP1;ratioP1;P1;durP2;ratioP2;P2;SDS_P1;SDS_P2;PMS_P1;PMS_P2;Temp;Humidity;BMP_temperature;BMP_pressure;BME280_temperature;BME280_humidity;BME280_pressure;Samples;Min_cycle;Max_cycle;Signal;HPM_P1;HPM_P2
2022/02/20 00:01:10;;;;;;;4.95;2.30;;;-6.50;99.90;;;;;;4936100;29;20027;-74
2022/02/20 00:03:36;;;;;;;6.28;2.30;;;-6.50;99.90;;;;;;4936036;29;20440;-73
2022/02/20 00:06:03;;;;;;;6.28;2.28;;;-6.50;99.90;;;;;;4935816;29;20488;-74
2022/02/20 00:08:29;;;;;;;4.57;2.08;;;-6.50;99.90;;;;;;4936211;29;20107;-74
2022/02/20 00:10:55;;;;;;;6.05;2.38;;;-6.60;99.90;;;;;;4935918;29;20488;-73
2022/02/20 00:13:20;;;;;;;5.68;2.30;;;-6.50;99.90;;;;;;4935748;29;20028;-73
2022/02/20 00:15:46;;;;;;;4.35;2.15;;;-6.50;99.90;;;;;;4935951;29;20039;-73
2022/02/20 00:18:12;;;;;;;4.25;2.08;;;-6.50;99.90;;;;;;4935675;29;20423;-74
2022/02/20 00:20:38;;;;;;;4.40;2.22;;;-6.40;99.90;;;;;;4935952;29;20518;-74
2022/02/20 00:23:04;;;;;;;4.80;2.25;;;-6.40;99.90;;;;;;4935395;29;20115;-74
2022/02/20 00:25:35;;;;;;;6.35;2.67;;;-6.40;99.90;;;;;;4935846;29;20027;-73
2022/02/20 00:28:05;;;;;;;6.80;2.55;;;-6.40;99.90;;;;;;4935727;29;20032;-76
2022/02/20 00:30:31;;;;;;;4.65;2.20;;;-6.30;99.90;;;;;;4935554;29;20027;-76
2022/02/20 00:32:58;;;;;;;3.08;1.95;;;-6.30;99.90;;;;;;4935493;29;20020;-76
2022/02/20 00:35:29;;;;;;;6.38;2.30;;;-6.30;99.90;;;;;;4935310;29;20503;-76
2022/02/20 00:37:56;;;;;;;6.13;2.15;;;-6.30;99.90;;;;;;4935489;29;20183;-76
2022/02/20 00:40:22;;;;;;;5.97;2.13;;;-6.30;99.90;;;;;;4935583;29;20055;-76
2022/02/20 00:42:48;;;;;;;4.22;2.30;;;-6.30;99.90;;;;;;4935718;29;20023;-76
2022/02/20 00:45:14;;;;;;;5.43;2.35;;;-6.20;99.90;;;;;;4935489;29;20475;-74
2022/02/20 00:47:39;;;;;;;4.03;2.08;;;-6.20;99.90;;;;;;4918175;29;20131;-73
2022/02/20 00:50:05;;;;;;;3.28;2.25;;;-6.20;99.90;;;;;;4935100;29;20063;-73
2022/02/20 00:52:31;;;;;;;6.75;2.10;;;-6.20;99.90;;;;;;4935158;29;20027;-73
2022/02/20 00:54:57;;;;;;;6.95;2.28;;;-6.20;99.90;;;;;;4935306;29;20099;-73
2022/02/20 00:57:23;;;;;;;4.47;2.20;;;-6.20;99.90;;;;;;4933587;29;20503;-73
2022/02/20 00:59:48;;;;;;;4.07;1.88;;;-6.30;99.90;;;;;;4935061;29;20102;-73
2022/02/20 01:02:14;;;;;;;4.88;2.15;;;-6.30;99.90;;;;;;4934828;29;20027;-73
2022/02/20 01:04:40;;;;;;;4.60;2.03;;;-6.30;99.90;;;;;;4934868;29;20451;-73
2022/02/20 01:07:06;;;;;;;5.18;2.15;;;-6.30;99.90;;;;;;4935096;29;20027;-73
2022/02/20 01:09:32;;;;;;;2.70;1.90;;;-6.30;99.90;;;;;;4935035;29;20558;-73
2022/02/20 01:11:58;;;;;;;2.15;1.95;;;-6.30;99.90;;;;;;4934903;29;20055;-73
2022/02/20 01:14:24;;;;;;;2.55;1.70;;;-6.30;99.90;;;;;;4934990;29;20032;-73
2022/02/20 01:16:50;;;;;;;4.93;2.13;;;-6.30;99.90;;;;;;4934622;29;20063;-73
2022/02/20 01:19:16;;;;;;;7.15;2.03;;;-6.30;99.90;;;;;;4934772;29;20045;-73
2022/02/20 01:21:42;;;;;;;2.78;2.00;;;-6.40;99.90;;;;;;4934825;29;20635;-73
2022/02/20 01:24:08;;;;;;;4.30;2.13;;;-6.30;99.90;;;;;;4934747;29;20098;-73
2022/02/20 01:26:34;;;;;;;3.53;2.20;;;-6.30;99.90;;;;;;4934663;29;20031;-73
2022/02/20 01:29:00;;;;;;;4.05;1.98;;;-6.30;99.90;;;;;;4934804;29;20038;-73
2022/02/20 01:31:26;;;;;;;5.75;1.92;;;-6.30;99.90;;;;;;4934793;29;20468;-74
2022/02/20 01:33:51;;;;;;;7.55;2.15;;;-6.30;99.90;;;;;;4935021;29;20368;-74
2022/02/20 01:36:17;;;;;;;5.45;2.10;;;-6.20;99.90;;;;;;4934368;29;20190;-74
2022/02/20 01:38:43;;;;;;;3.15;1.70;;;-6.20;99.90;;;;;;4934486;29;20051;-74
2022/02/20 01:41:09;;;;;;;3.72;2.25;;;-6.20;99.90;;;;;;4934543;29;20024;-74
2022/02/20 01:43:34;;;;;;;4.10;2.13;;;-6.10;99.90;;;;;;4934804;29;20163;-74
2022/02/20 01:46:00;;;;;;;6.45;2.38;;;-6.10;99.90;;;;;;4935482;29;20046;-74
2022/02/20 01:48:26;;;;;;;7.85;2.28;;;-6.10;99.90;;;;;;4938262;29;20060;-74
2022/02/20 01:50:52;;;;;;;4.72;2.60;;;-6.10;99.90;;;;;;4938418;29;20476;-75
2022/02/20 01:53:18;;;;;;;3.50;1.95;;;-6.10;99.90;;;;;;4938208;29;20023;-75
2022/02/20 01:55:44;;;;;;;5.32;2.28;;;-6.10;99.90;;;;;;4938207;29;20042;-74
2022/02/20 01:58:10;;;;;;;4.15;2.30;;;-6.10;99.90;;;;;;4938165;29;20024;-74
2022/02/20 02:00:36;;;;;;;4.78;2.22;;;-6.00;99.90;;;;;;4936993;29;20737;-74
2022/02/20 02:03:02;;;;;;;5.68;2.63;;;-6.00;99.90;;;;;;4938146;29;20020;-74
2022/02/20 02:05:28;;;;;;;4.78;2.22;;;-6.00;99.90;;;;;;4938022;29;20062;-74
2022/02/20 02:07:53;;;;;;;7.18;2.38;;;-6.00;99.90;;;;;;4938294;29;20063;-74
2022/02/20 02:10:19;;;;;;;5.47;2.03;;;-5.90;99.90;;;;;;4937989;29;20023;-74
2022/02/20 02:12:45;;;;;;;7.25;2.50;;;-5.80;99.90;;;;;;4938011;29;20038;-74
2022/02/20 02:15:12;;;;;;;6.35;1.90;;;-5.80;99.90;;;;;;4937822;29;20079;-74
2022/02/20 02:17:38;;;;;;;4.15;2.22;;;-5.70;99.90;;;;;;4937991;29;20036;-74
2022/02/20 02:20:08;;;;;;;3.83;2.60;;;-5.70;99.90;;;;;;4938049;29;20028;-74
2022/02/20 02:22:34;;;;;;;4.38;2.05;;;-5.70;99.90;;;;;;4938022;29;20395;-75
2022/02/20 02:25:01;;;;;;;3.47;2.40;;;-5.70;99.90;;;;;;4938111;29;20032;-73
2022/02/20 02:27:27;;;;;;;8.48;2.33;;;-5.70;99.90;;;;;;4937542;29;20032;-73
2022/02/20 02:29:54;;;;;;;9.05;2.38;;;-5.70;99.90;;;;;;4937724;29;20020;-75
2022/02/20 02:32:20;;;;;;;5.13;2.10;;;-5.70;99.90;;;;;;4937757;29;20059;-75
2022/02/20 02:34:47;;;;;;;4.30;2.13;;;-5.80;99.90;;;;;;4937932;29;20027;-75
2022/02/20 02:37:13;;;;;;;5.65;2.10;;;-5.80;99.90;;;;;;4937227;29;20051;-75
2022/02/20 02:39:40;;;;;;;7.38;2.70;;;-5.80;99.90;;;;;;4937613;29;20032;-74
2022/02/20 02:42:08;;;;;;;5.00;1.98;;;-5.80;99.90;;;;;;4936312;29;20122;-75
2022/02/20 02:44:34;;;;;;;7.28;2.42;;;-5.80;99.90;;;;;;4937662;29;20087;-74
2022/02/20 02:46:59;;;;;;;3.40;2.30;;;-5.80;99.90;;;;;;4937410;29;20448;-75
2022/02/20 02:49:25;;;;;;;7.13;1.80;;;-5.70;99.90;;;;;;4937435;29;20062;-75
2022/02/20 02:51:51;;;;;;;3.40;2.10;;;-5.70;99.90;;;;;;4937530;29;20107;-76
2022/02/20 02:54:17;;;;;;;4.22;2.00;;;-5.70;99.90;;;;;;4937138;29;20082;-75
2022/02/20 02:56:47;;;;;;;6.28;2.30;;;-5.70;99.90;;;;;;4937078;29;20399;-76
2022/02/20 02:59:13;;;;;;;6.35;2.58;;;-5.70;99.90;;;;;;4936495;29;20106;-74
2022/02/20 03:01:40;;;;;;;2.45;1.95;;;-5.70;99.90;;;;;;4935995;29;20067;-74
2022/02/20 03:37:45;;;;;;;7.30;1.85;;;-5.70;99.90;;;;;;5808738;23;20047;-72
2022/02/20 03:40:11;;;;;;;4.10;1.92;;;-5.80;99.90;;;;;;4953442;29;20042;-74
2022/02/20 03:42:37;;;;;;;5.53;1.80;;;-5.90;99.90;;;;;;4955553;29;20078;-74
2022/02/20 03:45:04;;;;;;;2.10;1.88;;;-5.90;99.90;;;;;;4954087;29;20031;-76
2022/02/20 03:47:30;;;;;;;3.55;1.88;;;-5.90;99.90;;;;;;4955486;28;20027;-75
2022/02/20 03:49:55;;;;;;;3.38;1.90;;;-5.90;99.90;;;;;;4955305;29;20023;-75
2022/02/20 03:52:21;;;;;;;2.22;1.70;;;-5.90;99.90;;;;;;4955723;29;20030;-75
2022/02/20 03:54:47;;;;;;;5.63;2.15;;;-5.90;99.90;;;;;;4955290;28;20395;-74
2022/02/20 03:57:12;;;;;;;8.90;2.40;;;-6.00;99.90;;;;;;4955312;29;20039;-74
2022/02/20 03:59:38;;;;;;;3.45;1.70;;;-5.90;99.90;;;;;;4955292;29;20027;-74
2022/02/20 04:02:04;;;;;;;7.30;2.55;;;-5.90;99.90;;;;;;4955223;29;20026;-74
2022/02/20 04:04:30;;;;;;;3.03;2.03;;;-5.90;99.90;;;;;;4955101;28;20474;-76
2022/02/20 04:06:55;;;;;;;5.90;2.05;;;-5.90;99.90;;;;;;4955063;29;20043;-75
2022/02/20 04:09:21;;;;;;;5.03;2.15;;;-5.90;99.90;;;;;;4955010;28;20102;-75
2022/02/20 04:11:47;;;;;;;2.80;1.95;;;-5.80;99.90;;;;;;4955194;28;20534;-75
2022/02/20 04:14:13;;;;;;;2.28;2.00;;;-5.70;99.90;;;;;;4954934;28;20383;-75
2022/02/20 04:16:38;;;;;;;6.53;2.15;;;-5.70;99.90;;;;;;4954908;28;20039;-76
2022/02/20 04:19:04;;;;;;;4.43;2.42;;;-5.70;99.90;;;;;;4954721;29;20029;-74
2022/02/20 04:21:30;;;;;;;2.75;2.20;;;-5.60;99.90;;;;;;4954880;28;20027;-74
2022/02/20 04:23:56;;;;;;;2.95;2.00;;;-5.60;99.90;;;;;;4954945;28;20627;-74
2022/02/20 04:26:21;;;;;;;3.03;1.77;;;-5.60;99.90;;;;;;4954950;29;20502;-73
2022/02/20 04:28:48;;;;;;;4.57;2.05;;;-5.60;99.90;;;;;;4954534;28;20069;-74
2022/02/20 04:31:14;;;;;;;10.38;2.40;;;-5.70;99.90;;;;;;4954685;28;20023;-74
2022/02/20 04:33:39;;;;;;;4.50;2.10;;;-5.70;99.90;;;;;;4954833;28;20055;-74
2022/02/20 04:36:05;;;;;;;4.88;2.20;;;-5.70;99.90;;;;;;4954439;28;20450;-74
2022/02/20 04:38:31;;;;;;;4.40;1.80;;;-5.80;99.90;;;;;;4954259;28;20134;-74
2022/02/20 04:40:57;;;;;;;6.15;2.10;;;-5.80;99.90;;;;;;4954347;29;20027;-74
2022/02/20 04:43:22;;;;;;;6.53;2.13;;;-5.80;99.90;;;;;;4954433;29;20042;-74
2022/02/20 04:45:48;;;;;;;2.88;2.20;;;-5.80;99.90;;;;;;4954553;28;20433;-74
2022/02/20 04:48:14;;;;;;;4.55;2.03;;;-5.90;99.90;;;;;;4954319;29;20031;-74
2022/02/20 04:50:39;;;;;;;4.57;2.05;;;-5.90;99.90;;;;;;4954375;29;20414;-74
2022/02/20 04:53:05;;;;;;;6.18;2.05;;;-5.90;99.90;;;;;;4952871;29;20043;-74
2022/02/20 04:55:31;;;;;;;5.57;2.15;;;-6.00;99.90;;;;;;4954536;29;20122;-74
2022/02/20 04:57:57;;;;;;;5.30;2.28;;;-6.10;99.90;;;;;;4954334;29;20475;-73
2022/02/20 05:00:23;;;;;;;4.57;2.10;;;-6.10;99.90;;;;;;4954272;28;20027;-72
2022/02/20 05:02:49;;;;;;;6.82;2.38;;;-6.10;99.90;;;;;;4954042;28;20031;-74
2022/02/20 05:05:14;;;;;;;5.20;2.33;;;-6.10;99.90;;;;;;4954121;29;20050;-74
2022/02/20 05:07:40;;;;;;;3.45;2.03;;;-6.20;99.90;;;;;;4954399;29;20082;-73
2022/02/20 05:10:06;;;;;;;2.22;2.03;;;-6.20;99.90;;;;;;4953950;29;20023;-73
2022/02/20 05:12:32;;;;;;;5.93;2.05;;;-6.20;99.90;;;;;;4954104;28;20034;-73
2022/02/20 05:14:57;;;;;;;3.42;1.95;;;-6.20;99.90;;;;;;4953934;29;20031;-73
2022/02/20 05:17:23;;;;;;;3.78;1.83;;;-6.20;99.90;;;;;;4953898;29;20438;-74
2022/02/20 05:19:49;;;;;;;3.80;1.95;;;-6.20;99.90;;;;;;4953899;29;20032;-75
2022/02/20 05:22:14;;;;;;;8.13;2.38;;;-6.20;99.90;;;;;;4953411;28;20037;-75
2022/02/20 05:24:40;;;;;;;6.22;2.05;;;-6.20;99.90;;;;;;4954227;28;20023;-74
2022/02/20 05:27:06;;;;;;;3.55;2.25;;;-6.20;99.90;;;;;;4953904;28;20028;-76
2022/02/20 05:29:31;;;;;;;6.70;2.35;;;-6.20;99.90;;;;;;4954252;29;20028;-74
2022/02/20 05:31:57;;;;;;;6.25;2.35;;;-6.20;99.90;;;;;;4953970;29;20070;-70
2022/02/20 05:34:23;;;;;;;8.32;2.47;;;-6.10;99.90;;;;;;4953914;29;20483;-69
2022/02/20 05:36:49;;;;;;;5.10;1.92;;;-6.10;99.90;;;;;;4953915;29;20043;-69
2022/02/20 05:39:14;;;;;;;7.25;2.28;;;-6.10;99.90;;;;;;4953318;29;20390;-68
2022/02/20 05:41:40;;;;;;;5.47;2.20;;;-5.80;99.90;;;;;;4953799;29;20039;-71
2022/02/20 05:44:06;;;;;;;4.28;2.30;;;-5.10;99.90;;;;;;4953604;29;20035;-69
2022/02/20 05:46:31;;;;;;;6.88;2.08;;;-5.00;99.90;;;;;;4926638;29;20080;-68
2022/02/20 05:49:00;;;;;;;4.32;2.45;;;-5.30;99.90;;;;;;4923588;29;20430;-69
2022/02/20 05:51:25;;;;;;;4.05;2.45;;;-5.40;99.90;;;;;;4925454;29;20020;-73
2022/02/20 05:53:51;;;;;;;7.78;2.20;;;-5.60;99.90;;;;;;4925678;29;20035;-78
2022/02/20 05:56:17;;;;;;;4.00;2.03;;;-5.60;99.90;;;;;;4927650;29;20060;-75
2022/02/20 05:58:43;;;;;;;4.05;2.28;;;-5.70;99.90;;;;;;4925472;29;20024;-67
2022/02/20 06:01:09;;;;;;;5.50;2.03;;;-5.70;99.90;;;;;;4923465;29;20079;-66
2022/02/20 06:03:35;;;;;;;6.25;2.25;;;-5.70;99.90;;;;;;4925276;29;20023;-67
2022/02/20 06:06:00;;;;;;;4.85;2.05;;;-5.70;99.90;;;;;;4923288;29;20035;-67
2022/02/20 06:08:26;;;;;;;5.13;2.20;;;-5.70;99.90;;;;;;4925278;29;20060;-67
2022/02/20 06:10:52;;;;;;;4.65;2.25;;;-5.70;99.90;;;;;;4923703;29;20035;-66
2022/02/20 06:13:20;;;;;;;4.50;2.55;;;-5.70;99.90;;;;;;4926179;29;20024;-68
2022/02/20 06:15:46;;;;;;;6.97;2.40;;;-5.80;99.90;;;;;;4923517;29;20040;-67
2022/02/20 06:18:12;;;;;;;5.05;2.05;;;-5.80;99.90;;;;;;4917488;29;20586;-70
2022/02/20 06:20:38;;;;;;;2.80;2.05;;;-5.80;99.90;;;;;;4915083;29;20036;-69
2022/02/20 06:23:03;;;;;;;3.85;2.13;;;-5.80;99.90;;;;;;4915477;29;20031;-71
2022/02/20 06:25:30;;;;;;;3.67;1.92;;;-4.70;99.90;;;;;;4915052;29;20384;-69
2022/02/20 06:27:55;;;;;;;4.18;1.83;;;-2.50;99.90;;;;;;4915454;29;20119;-70
2022/02/20 06:30:21;;;;;;;6.95;1.88;;;-1.10;99.90;;;;;;4915550;29;20116;-69
2022/02/20 06:32:47;;;;;;;7.20;2.33;;;-0.40;99.90;;;;;;4917316;29;20421;-69
2022/02/20 06:35:14;;;;;;;5.60;2.03;;;0.10;99.90;;;;;;4918368;29;20760;-70
2022/02/20 06:37:39;;;;;;;6.65;2.42;;;0.50;99.90;;;;;;4918325;29;20032;-70
2022/02/20 06:40:06;;;;;;;4.72;2.20;;;0.70;99.90;;;;;;4918439;29;20039;-70
2022/02/20 06:42:32;;;;;;;6.38;1.90;;;1.00;99.90;;;;;;4918606;29;20115;-70
2022/02/20 06:44:58;;;;;;;4.10;1.73;;;1.30;99.90;;;;;;4918454;29;20103;-70
2022/02/20 06:47:23;;;;;;;5.28;1.88;;;1.60;99.90;;;;;;4918539;29;20024;-70
2022/02/20 06:49:49;;;;;;;3.97;1.70;;;1.80;99.90;;;;;;4918758;29;20107;-71
2022/02/20 06:52:15;;;;;;;4.57;1.73;;;2.00;99.90;;;;;;4918329;29;20049;-71
2022/02/20 06:54:40;;;;;;;4.93;2.13;;;1.20;99.90;;;;;;4918399;29;20084;-71
2022/02/20 06:57:06;;;;;;;5.10;1.90;;;0.30;99.90;;;;;;4918192;29;20392;-70
2022/02/20 06:59:32;;;;;;;4.18;2.00;;;-0.60;99.90;;;;;;4918237;29;20497;-71
2022/02/20 07:01:58;;;;;;;5.07;2.08;;;-1.30;99.90;;;;;;4916921;29;20055;-68
2022/02/20 07:04:23;;;;;;;5.03;2.33;;;-1.10;99.90;;;;;;4918157;29;20432;-70
2022/02/20 07:06:49;;;;;;;7.15;2.83;;;0.00;99.90;;;;;;4918118;29;20035;-71
2022/02/20 07:09:15;;;;;;;6.47;2.17;;;0.20;99.90;;;;;;4917808;29;20396;-69
2022/02/20 07:11:41;;;;;;;4.82;1.98;;;0.50;99.90;;;;;;4918001;29;20365;-69
2022/02/20 07:14:08;;;;;;;6.22;2.15;;;1.30;99.90;;;;;;4917803;29;20126;-70
2022/02/20 07:16:34;;;;;;;4.63;1.88;;;0.80;99.90;;;;;;4918040;29;20055;-72
2022/02/20 07:19:00;;;;;;;5.18;2.08;;;-0.20;99.90;;;;;;4917649;29;20026;-73
2022/02/20 07:21:28;;;;;;;4.50;1.98;;;-0.80;99.90;;;;;;4918068;29;20084;-69
2022/02/20 07:23:55;;;;;;;6.03;1.92;;;-1.40;99.90;;;;;;4918018;29;20032;-71
2022/02/20 07:26:21;;;;;;;8.10;2.40;;;-1.80;99.90;;;;;;4917802;29;20555;-70
2022/02/20 07:28:47;;;;;;;9.20;2.05;;;-1.50;99.90;;;;;;4917590;29;20115;-71
2022/02/20 07:31:12;;;;;;;6.60;2.30;;;-1.50;99.90;;;;;;4917702;29;20032;-68
2022/02/20 07:33:38;;;;;;;5.20;2.60;;;-1.80;99.90;;;;;;4923629;29;20352;-68
2022/02/20 07:36:04;;;;;;;35.55;12.88;;;-2.00;99.90;;;;;;4935799;29;20036;-68
2022/02/20 07:38:30;;;;;;;458.98;165.43;;;-2.20;99.90;;;;;;4941127;29;20051;-68
2022/02/20 07:40:58;;;;;;;472.17;144.75;;;-2.40;99.90;;;;;;4955131;28;20475;-68
2022/02/20 07:43:25;;;;;;;304.20;97.35;;;-2.50;99.90;;;;;;4953809;28;20518;-68
2022/02/20 07:45:51;;;;;;;213.15;76.97;;;-2.60;99.90;;;;;;4933109;29;20032;-68
2022/02/20 07:48:16;;;;;;;79.28;30.05;;;-2.70;99.90;;;;;;4933568;29;20036;-67
2022/02/20 07:50:43;;;;;;;77.45;24.40;;;-2.80;99.90;;;;;;4935777;29;20028;-70
2022/02/20 07:53:09;;;;;;;47.30;16.25;;;-2.80;99.90;;;;;;4936233;29;20361;-68
2022/02/20 07:55:35;;;;;;;70.70;20.90;;;-2.90;99.90;;;;;;4936251;29;20039;-67
2022/02/20 07:58:02;;;;;;;53.53;14.85;;;-2.90;99.90;;;;;;4935903;29;20435;-67
2022/02/20 08:00:30;;;;;;;118.15;40.08;;;-2.80;99.90;;;;;;4936004;29;20047;-67
2022/02/20 08:03:00;;;;;;;52.65;18.15;;;-2.90;99.90;;;;;;4936049;29;20036;-68
2022/02/20 08:05:27;;;;;;;20.40;9.57;;;-3.00;99.90;;;;;;4936211;29;20075;-67
2022/02/20 08:07:52;;;;;;;16.85;7.07;;;-3.10;99.90;;;;;;4936177;29;20067;-68
2022/02/20 08:10:18;;;;;;;8.00;4.03;;;-3.10;99.90;;;;;;4936116;29;20077;-68
2022/02/20 08:12:44;;;;;;;10.27;4.15;;;-3.10;99.90;;;;;;4920136;29;20028;-66
2022/02/20 08:15:10;;;;;;;6.43;3.22;;;-2.30;99.90;;;;;;4916756;29;20042;-66
2022/02/20 08:17:45;;;;;;;5.85;2.40;;;-2.00;99.90;;;;;;4916962;29;20032;-66
2022/02/20 08:20:13;;;;;;;5.43;2.60;;;-2.30;99.90;;;;;;4916708;29;20026;-66
2022/02/20 08:22:40;;;;;;;5.28;2.78;;;-2.50;99.90;;;;;;4922070;29;20027;-67
2022/02/20 08:25:06;;;;;;;11.30;4.13;;;-2.60;99.90;;;;;;4930434;29;20030;-69
2022/02/20 08:27:35;;;;;;;7.65;2.65;;;-2.50;99.90;;;;;;4935583;29;20111;-68
2022/02/20 08:30:05;;;;;;;8.85;2.78;;;-2.70;99.90;;;;;;4935341;29;20534;-70
2022/02/20 08:32:31;;;;;;;11.10;2.83;;;-2.80;99.90;;;;;;4933228;29;20020;-69
2022/02/20 08:34:57;;;;;;;7.13;2.58;;;-2.90;99.90;;;;;;4932056;29;20032;-69
2022/02/20 08:37:23;;;;;;;9.75;2.05;;;-3.00;99.90;;;;;;4935136;29;20075;-69
2022/02/20 08:39:48;;;;;;;5.15;2.13;;;-3.10;99.90;;;;;;4935130;29;20052;-69
2022/02/20 08:42:14;;;;;;;9.13;2.20;;;-3.10;99.90;;;;;;4935151;29;20483;-69
2022/02/20 08:44:41;;;;;;;3.88;1.98;;;-2.60;99.90;;;;;;4935153;29;20019;-70
2022/02/20 08:47:08;;;;;;;8.18;2.25;;;-2.10;99.90;;;;;;4935104;29;20078;-69
2022/02/20 08:49:34;;;;;;;10.93;2.40;;;-2.30;99.90;;;;;;4935416;29;20054;-70
2022/02/20 08:52:00;;;;;;;11.52;2.35;;;-2.50;99.90;;;;;;4935239;29;20019;-70
2022/02/20 08:54:26;;;;;;;4.80;2.00;;;-2.70;99.90;;;;;;4933819;29;20054;-69
2022/02/20 08:56:52;;;;;;;7.68;1.98;;;-2.50;99.90;;;;;;4934461;29;20631;-69
2022/02/20 08:59:18;;;;;;;6.78;2.05;;;-2.60;99.90;;;;;;4935192;29;20027;-68
2022/02/20 09:01:43;;;;;;;5.68;2.33;;;-2.60;99.90;;;;;;4935058;29;20023;-67
2022/02/20 09:04:12;;;;;;;6.55;2.33;;;-2.50;99.90;;;;;;4934716;29;20075;-71
2022/02/20 09:06:38;;;;;;;7.63;2.90;;;-2.70;99.90;;;;;;4934974;29;20479;-69
2022/02/20 09:09:05;;;;;;;5.63;2.47;;;-2.90;99.90;;;;;;4934875;29;20028;-69
2022/02/20 09:11:30;;;;;;;7.30;2.58;;;-2.90;99.90;;;;;;4934989;29;20039;-67
2022/02/20 09:13:56;;;;;;;4.35;2.00;;;-2.90;99.90;;;;;;4935027;29;20024;-70
2022/02/20 09:16:22;;;;;;;5.47;2.10;;;-3.00;99.90;;;;;;4934626;29;20040;-69
2022/02/20 09:18:48;;;;;;;7.53;2.47;;;-2.90;99.90;;;;;;4934422;29;20038;-72
2022/02/20 09:21:14;;;;;;;6.63;1.85;;;-3.00;99.90;;;;;;4931960;29;20023;-72
2022/02/20 09:23:39;;;;;;;7.82;2.30;;;-3.10;99.90;;;;;;4934762;29;20024;-72
2022/02/20 09:26:06;;;;;;;9.13;2.65;;;-3.10;99.90;;;;;;4934774;29;20024;-72
2022/02/20 09:28:32;;;;;;;7.93;2.60;;;-3.10;99.90;;;;;;4934822;29;20034;-72
2022/02/20 09:30:59;;;;;;;3.50;1.73;;;-3.20;99.90;;;;;;4934866;29;20079;-71
2022/02/20 09:33:25;;;;;;;7.90;2.40;;;-3.20;99.90;;;;;;4934769;29;20027;-71
2022/02/20 09:35:51;;;;;;;7.07;2.55;;;-3.30;99.90;;;;;;4934758;29;20039;-71
2022/02/20 09:38:17;;;;;;;12.95;2.45;;;-3.30;99.90;;;;;;4934499;29;20059;-72
2022/02/20 09:40:44;;;;;;;5.85;2.47;;;-3.20;99.90;;;;;;4934826;29;20082;-71
2022/02/20 09:43:15;;;;;;;7.18;2.20;;;-3.20;99.90;;;;;;4934685;29;20035;-71
2022/02/20 09:45:45;;;;;;;8.60;2.90;;;-3.30;99.90;;;;;;4934633;29;20087;-72
2022/02/20 09:48:12;;;;;;;4.18;2.10;;;-3.10;99.90;;;;;;4934589;29;20028;-70
2022/02/20 09:50:38;;;;;;;7.22;2.45;;;-2.90;99.90;;;;;;4934584;29;20495;-70
2022/02/20 09:53:04;;;;;;;6.38;2.05;;;-2.90;99.90;;;;;;4934553;29;20035;-69
2022/02/20 09:55:30;;;;;;;6.18;2.15;;;-2.50;99.90;;;;;;4934723;29;20027;-71
2022/02/20 09:57:56;;;;;;;7.18;2.03;;;-2.40;99.90;;;;;;4934205;29;20102;-71
2022/02/20 10:00:22;;;;;;;4.15;2.22;;;-2.50;99.90;;;;;;4934330;29;20024;-71
2022/02/20 10:02:48;;;;;;;10.80;2.20;;;-2.80;99.90;;;;;;4934445;29;20030;-71
2022/02/20 10:05:20;;;;;;;7.35;2.00;;;-3.00;99.90;;;;;;4934232;29;20039;-71
2022/02/20 10:07:47;;;;;;;6.63;2.40;;;-3.10;99.90;;;;;;4936622;29;20032;-71
2022/02/20 10:10:15;;;;;;;4.50;2.10;;;-3.20;99.90;;;;;;4937890;29;20488;-70
2022/02/20 10:12:41;;;;;;;8.40;2.28;;;-3.00;99.90;;;;;;4937987;29;20035;-70
2022/02/20 10:15:27;;;;;;;10.43;2.63;;;-2.50;99.90;;;;;;4937363;29;20022;-71
2022/02/20 10:18:18;;;;;;;4.75;2.10;;;-2.70;99.90;;;;;;4928801;29;20047;-70
2022/02/20 10:20:44;;;;;;;5.85;2.08;;;-3.00;99.90;;;;;;4928413;29;20072;-70
2022/02/20 10:23:15;;;;;;;4.72;1.83;;;-3.20;99.90;;;;;;4928825;29;20028;-67
2022/02/20 10:25:44;;;;;;;10.07;2.47;;;-3.20;99.90;;;;;;4929017;29;20056;-67
2022/02/20 10:28:11;;;;;;;5.37;2.13;;;-3.30;99.90;;;;;;4926844;29;20505;-67
2022/02/20 10:30:38;;;;;;;13.32;2.30;;;-3.30;99.90;;;;;;4928041;29;20055;-67
2022/02/20 10:33:11;;;;;;;8.30;2.30;;;-3.30;99.90;;;;;;4928614;29;20534;-67
2022/02/20 10:35:42;;;;;;;9.18;2.47;;;-3.30;99.90;;;;;;4927305;29;20040;-67
2022/02/20 10:38:13;;;;;;;8.45;1.98;;;-3.30;99.90;;;;;;4934438;29;20048;-68
2022/02/20 10:40:43;;;;;;;7.20;2.42;;;-3.30;99.90;;;;;;4936360;29;20027;-68
2022/02/20 10:43:27;;;;;;;5.85;2.25;;;-3.30;99.90;;;;;;4937680;29;20031;-68
2022/02/20 10:46:16;;;;;;;8.18;2.28;;;-3.30;99.90;;;;;;4936245;29;20254;-68
2022/02/20 10:48:44;;;;;;;11.18;2.22;;;-3.20;99.90;;;;;;4937485;29;20114;-68
2022/02/20 10:51:11;;;;;;;11.35;2.50;;;-3.20;99.90;;;;;;4937149;29;20039;-68
2022/02/20 10:53:37;;;;;;;9.68;2.30;;;-3.20;99.90;;;;;;4937272;29;20067;-69
2022/02/20 10:56:03;;;;;;;10.18;2.45;;;-3.20;99.90;;;;;;4936553;29;20036;-68
2022/02/20 10:58:32;;;;;;;7.20;2.13;;;-3.20;99.90;;;;;;4918946;29;20027;-68
2022/02/20 11:01:00;;;;;;;5.13;2.42;;;-3.20;99.90;;;;;;4918240;29;20047;-68
2022/02/20 11:03:30;;;;;;;11.30;2.30;;;-3.20;99.90;;;;;;4926494;29;20731;-68
2022/02/20 11:05:56;;;;;;;;;;;-3.20;99.90;;;;;;4927296;29;20040;-68
2022/02/20 11:08:24;;;;;;;6.68;2.45;;;-3.20;99.90;;;;;;4927483;29;20323;-68
2022/02/20 11:10:52;;;;;;;3.47;2.10;;;-3.20;99.90;;;;;;4928054;29;20118;-68
2022/02/20 11:13:19;;;;;;;4.75;2.15;;;-3.30;99.90;;;;;;4926621;29;20048;-68
2022/02/20 11:15:46;;;;;;;7.40;2.40;;;-3.20;99.90;;;;;;4926356;29;20039;-68
2022/02/20 11:18:17;;;;;;;8.48;2.63;;;-3.20;99.90;;;;;;4927123;29;20026;-67
2022/02/20 11:20:52;;;;;;;10.13;2.20;;;-3.20;99.90;;;;;;4928860;29;20023;-68
2022/02/20 11:23:28;;;;;;;9.00;2.67;;;-3.20;99.90;;;;;;4927672;29;20440;-69
2022/02/20 11:25:57;;;;;;;15.05;2.88;;;-3.20;99.90;;;;;;4928351;29;20455;-68
2022/02/20 11:28:22;;;;;;;9.75;2.83;;;-3.20;99.90;;;;;;4936184;29;20028;-67
2022/02/20 11:30:49;;;;;;;6.45;2.70;;;-3.10;99.90;;;;;;4928879;29;20471;-68
2022/02/20 11:33:15;;;;;;;9.70;2.50;;;-3.20;99.90;;;;;;4933510;29;20028;-67
2022/02/20 11:35:45;;;;;;;7.72;2.70;;;-3.30;99.90;;;;;;4936684;29;20075;-68
2022/02/20 11:38:16;;;;;;;9.13;2.70;;;-3.30;99.90;;;;;;4936063;29;20521;-71
2022/02/20 11:40:52;;;;;;;7.18;2.63;;;-3.30;99.90;;;;;;4926832;29;20468;-68
2022/02/20 11:43:19;;;;;;;9.75;2.03;;;-3.20;99.90;;;;;;4927825;29;20391;-68
2022/02/20 11:46:06;;;;;;;9.27;2.75;;;-3.10;99.90;;;;;;4920235;29;20034;-68
2022/02/20 11:48:33;;;;;;;9.05;2.78;;;-3.00;99.90;;;;;;4917328;29;20030;-68
2022/02/20 11:51:13;;;;;;;8.65;2.53;;;-3.00;99.90;;;;;;4922246;29;20530;-68
2022/02/20 11:53:40;;;;;;;5.70;2.38;;;-3.00;99.90;;;;;;4926927;29;20021;-69
2022/02/20 11:56:07;;;;;;;4.43;2.40;;;-3.00;99.90;;;;;;4933253;29;20054;-68
2022/02/20 11:58:33;;;;;;;7.72;2.38;;;-3.00;99.90;;;;;;4935892;29;20567;-69
2022/02/20 12:01:03;;;;;;;5.40;2.30;;;-2.90;99.90;;;;;;4936025;29;20118;-68
2022/02/20 12:03:41;;;;;;;9.23;2.65;;;-2.90;99.90;;;;;;4936229;29;20032;-68
2022/02/20 12:06:19;;;;;;;12.35;2.58;;;-2.70;99.90;;;;;;4936249;29;20034;-68
2022/02/20 12:08:46;;;;;;;7.90;2.25;;;-2.80;99.90;;;;;;4935972;29;20071;-68
2022/02/20 12:11:24;;;;;;;7.88;2.78;;;-2.90;99.90;;;;;;4935718;29;20032;-68
2022/02/20 12:14:14;;;;;;;5.28;2.10;;;-3.00;99.90;;;;;;4934642;29;20110;-68
2022/02/20 12:16:41;;;;;;;4.28;2.42;;;-3.00;99.90;;;;;;4928428;29;20043;-68
2022/02/20 12:19:08;;;;;;;6.32;2.10;;;-3.00;99.90;;;;;;4934547;29;20468;-68
2022/02/20 12:21:51;;;;;;;9.93;2.50;;;-3.00;99.90;;;;;;4934260;29;20032;-68
2022/02/20 12:24:40;;;;;;;9.77;2.28;;;-3.10;99.90;;;;;;4935641;29;20031;-69
2022/02/20 12:27:07;;;;;;;7.43;2.50;;;-2.40;99.90;;;;;;4922881;29;20122;-69
2022/02/20 12:29:35;;;;;;;7.85;3.00;;;-2.20;99.90;;;;;;4935435;29;20031;-70
2022/02/20 12:32:06;;;;;;;8.82;2.47;;;-2.30;99.90;;;;;;4935631;29;20023;-69
2022/02/20 12:34:57;;;;;;;10.70;2.67;;;-2.60;99.90;;;;;;4935472;29;20035;-69
2022/02/20 12:37:32;;;;;;;6.93;2.67;;;-2.80;99.90;;;;;;4935195;29;20050;-70
2022/02/20 12:40:24;;;;;;;9.50;2.53;;;-2.90;99.90;;;;;;4935364;29;20044;-69
2022/02/20 12:42:55;;;;;;;9.15;2.50;;;-2.80;99.90;;;;;;4935445;29;20053;-69
2022/02/20 12:45:44;;;;;;;9.77;2.90;;;-2.80;99.90;;;;;;4935191;29;20557;-69
2022/02/20 12:48:12;;;;;;;5.47;2.30;;;-2.80;99.90;;;;;;4917659;29;20474;-67
2022/02/20 12:50:50;;;;;;;5.30;2.60;;;-0.80;99.90;;;;;;4916471;29;20039;-69
2022/02/20 12:53:17;;;;;;;5.22;2.40;;;1.10;99.90;;;;;;4916162;29;20028;-69
2022/02/20 12:55:46;;;;;;;10.35;2.60;;;0.60;99.90;;;;;;4916361;29;20251;-70
2022/02/20 12:58:13;;;;;;;8.95;2.90;;;-0.10;99.90;;;;;;4916111;29;20487;-70
2022/02/20 13:00:45;;;;;;;11.38;3.03;;;-0.80;99.90;;;;;;4916076;29;20443;-69
2022/02/20 13:03:13;;;;;;;5.72;2.83;;;-1.30;99.90;;;;;;4921256;29;20054;-69
2022/02/20 13:05:39;;;;;;;7.95;2.28;;;-1.70;99.90;;;;;;4924849;29;20456;-69
2022/02/20 13:08:08;;;;;;;9.15;2.45;;;-1.90;99.90;;;;;;4924566;29;20114;-69
2022/02/20 13:10:39;;;;;;;7.38;2.70;;;-2.00;99.90;;;;;;4932344;29;20126;-69
2022/02/20 13:13:04;;;;;;;4.75;1.98;;;-2.10;99.90;;;;;;4935232;29;20116;-69
2022/02/20 13:15:37;;;;;;;10.95;3.00;;;-1.90;99.90;;;;;;4934992;29;20428;-69
2022/02/20 13:18:07;;;;;;;7.13;2.88;;;-1.40;99.90;;;;;;4935122;29;20027;-69
2022/02/20 13:20:49;;;;;;;4.93;2.15;;;-1.60;99.90;;;;;;4934431;29;20454;-70